Time;durP1;ratioP1;P1;durP2;ratioP2;P2;SDS_P1;SDS_P2;PMS_P1;PMS_P2;Temp;Humidity;BMP_temperature;BMP_pressure;BME280_temperature;BME280_humidity;BME280_pressure;Samples;Min_cycle;Max_cycle;Signal;HPM_P1;HPM_P2
2023/06/30 00:01:39;;;;;;;;;56.00;44.00;;;;;22.61;45.79;101036.44;5061542;28;45469;-68
2023/06/30 00:04:06;;;;;;;;;57.25;45.25;;;;;22.58;45.32;101031.28;5082110;28;45482;-68
2023/06/30 00:06:32;;;;;;;;;58.50;47.75;;;;;22.58;45.42;101039.31;5082286;28;45482;-68
2023/06/30 00:08:58;;;;;;;;;54.75;43.75;;;;;22.56;45.88;101034.06;5082422;28;45480;-68
2023/06/30 00:11:24;;;;;;;;;50.75;39.25;;;;;22.53;45.67;101034.22;5081773;28;45328;-68
2023/06/30 00:13:52;;;;;;;;;48.25;39.75;;;;;22.47;46.16;101031.91;5083017;28;45488;-68
2023/06/30 00:16:19;;;;;;;;;55.75;42.00;;;;;22.48;46.09;101035.47;5083126;28;45262;-68
2023/06/30 00:18:45;;;;;;;;;44.50;37.25;;;;;22.42;45.89;101023.28;5083036;28;45434;-68
2023/06/30 00:21:10;;;;;;;;;40.75;34.50;;;;;22.45;46.08;101022.25;5082782;28;45500;-68
2023/06/30 00:23:36;;;;;;;;;32.50;28.75;;;;;22.42;46.43;101022.44;5082737;28;45222;-68
2023/06/30 00:26:01;;;;;;;;;29.25;25.00;;;;;22.40;46.57;101022.50;5082579;28;46271;-68
2023/06/30 00:28:27;;;;;;;;;24.50;23.25;;;;;22.39;46.85;101020.81;5081556;28;45251;-69
2023/06/30 00:30:52;;;;;;;;;29.25;25.75;;;;;22.37;46.71;101020.88;5082999;28;45295;-68
2023/06/30 00:33:18;;;;;;;;;28.00;26.25;;;;;22.34;46.65;101015.69;5082636;28;45263;-69
2023/06/30 00:35:43;;;;;;;;;35.75;29.75;;;;;22.32;46.54;101022.94;5081265;28;46024;-68
2023/06/30 00:38:09;;;;;;;;;33.25;26.75;;;;;22.31;46.54;101029.25;5080936;28;45295;-68
2023/06/30 00:40:34;;;;;;;;;28.75;25.00;;;;;;;;5082400;28;45236;-69
2023/06/30 00:43:00;;;;;;;;;28.00;24.75;;;;;22.27;46.68;101037.56;5081268;28;45955;-69
2023/06/30 00:45:26;;;;;;;;;23.25;20.25;;;;;22.26;46.59;101042.03;5080979;27;45398;-69
2023/06/30 00:47:51;;;;;;;;;28.00;24.75;;;;;22.24;47.09;101033.25;5074191;28;45312;-68
2023/06/30 00:50:18;;;;;;;;;24.75;21.75;;;;;22.24;47.01;101030.56;5062308;28;45393;-69
2023/06/30 00:52:45;;;;;;;;;28.50;24.75;;;;;22.23;47.06;101039.56;5082396;28;45197;-68
2023/06/30 00:55:12;;;;;;;;;31.75;26.75;;;;;22.22;46.86;101036.00;5081651;28;46582;-68
2023/06/30 00:57:38;;;;;;;;;45.50;36.75;;;;;22.20;47.10;101032.56;5061665;28;45459;-68
2023/06/30 01:00:11;;;;;;;;;44.75;36.00;;;;;22.23;47.13;101042.22;5062026;28;45456;-68
2023/06/30 01:02:43;;;;;;;;;40.00;33.50;;;;;22.22;47.40;101037.81;5062136;28;45256;-68
2023/06/30 01:05:14;;;;;;;;;30.50;29.00;;;;;22.19;47.04;101035.34;5061560;28;46243;-68
2023/06/30 01:07:56;;;;;;;;;26.25;24.25;;;;;22.16;47.13;101036.38;5061967;28;45371;-68
2023/06/30 01:10:24;;;;;;;;;23.75;20.50;;;;;22.12;47.08;101036.66;5060405;28;45456;-68
2023/06/30 01:12:51;;;;;;;;;19.50;15.75;;;;;22.10;46.77;101042.09;5060674;28;45431;-68
2023/06/30 01:15:17;;;;;;;;;22.00;20.25;;;;;22.11;47.13;101045.63;5060046;28;47019;-68
2023/06/30 01:17:46;;;;;;;;;24.25;22.25;;;;;22.07;47.08;101056.50;5061655;28;45306;-68
2023/06/30 01:20:14;;;;;;;;;28.25;25.75;;;;;22.07;46.87;101052.97;5061504;28;45364;-68
2023/06/30 01:23:19;;;;;;;;;28.00;26.25;;;;;22.07;46.89;101058.31;5061534;28;45404;-68
2023/06/30 01:25:47;;;;;;;;;25.00;22.50;;;;;22.04;46.64;101054.00;5029918;28;45475;-68
2023/06/30 01:28:16;;;;;;;;;22.25;18.50;;;;;22.03;47.28;101062.97;5069985;28;45333;-68
2023/06/30 01:30:41;;;;;;;;;20.00;17.50;;;;;22.01;46.70;101058.66;5061597;28;45246;-68
2023/06/30 01:33:07;;;;;;;;;23.25;20.00;;;;;21.95;46.78;101054.53;5059904;28;45486;-68
2023/06/30 01:35:33;;;;;;;;;14.25;14.25;;;;;21.91;46.66;101053.84;5068404;28;47146;-68
2023/06/30 01:37:59;;;;;;;;;14.00;14.00;;;;;21.91;46.73;101061.00;5060961;28;45315;-68
2023/06/30 01:40:25;;;;;;;;;16.25;16.25;;;;;21.88;47.15;101050.47;5061395;28;45272;-68
2023/06/30 01:42:55;;;;;;;;;17.25;16.75;;;;;21.90;46.85;101067.31;5060931;28;45539;-68
2023/06/30 01:45:23;;;;;;;;;30.50;26.00;;;;;21.87;47.22;101062.13;5061059;28;45624;-68
2023/06/30 01:47:50;;;;;;;;;19.50;17.50;;;;;21.82;46.94;101056.16;5072238;28;45614;-68
2023/06/30 01:50:16;;;;;;;;;19.75;15.75;;;;;21.79;46.77;101053.69;5061265;28;45395;-68
2023/06/30 01:52:41;;;;;;;;;18.00;16.50;;;;;21.81;46.84;101057.13;5063347;28;45364;-68
2023/06/30 01:55:07;;;;;;;;;15.25;13.50;;;;;21.77;46.98;101050.22;5066141;28;46113;-68
2023/06/30 01:57:32;;;;;;;;;19.00;17.75;;;;;21.73;46.88;101039.69;5060915;28;45371;-68
2023/06/30 01:59:57;;;;;;;;;18.50;17.50;;;;;21.73;46.64;101047.72;5060488;28;45232;-68
2023/06/30 02:02:23;;;;;;;;;30.50;26.25;;;;;21.70;46.59;101058.59;5061043;28;45286;-68
2023/06/30 02:04:48;;;;;;;;;32.75;29.75;;;;;21.67;46.82;101049.88;5060909;28;46372;-68
2023/06/30 02:07:13;;;;;;;;;28.25;23.75;;;;;21.65;46.75;101058.00;5060880;28;45240;-68
2023/06/30 02:09:39;;;;;;;;;26.75;22.25;;;;;21.61;46.50;101050.22;5060842;28;45289;-68
2023/06/30 02:12:05;;;;;;;;;17.50;14.75;;;;;21.62;46.80;101050.13;5060627;28;45552;-68
2023/06/30 02:14:30;;;;;;;;;22.50;19.75;;;;;21.60;46.87;101052.03;5060801;28;45281;-68
2023/06/30 02:16:56;;;;;;;;;19.50;18.25;;;;;21.59;46.64;101059.19;5060621;28;45216;-68
2023/06/30 02:19:23;;;;;;;;;18.75;17.25;;;;;21.58;46.97;101061.94;5060714;28;45232;-68
2023/06/30 02:21:50;;;;;;;;;18.75;18.25;;;;;21.54;46.62;101061.22;5059287;28;45588;-68
2023/06/30 02:24:15;;;;;;;;;21.75;19.25;;;;;21.53;46.97;101062.16;5060189;28;46169;-68
2023/06/30 02:26:40;;;;;;;;;22.25;20.00;;;;;21.54;46.73;101066.56;5060195;28;45337;-68
2023/06/30 02:29:06;;;;;;;;;35.00;29.50;;;;;21.55;46.67;101067.44;5060774;28;45512;-68
2023/06/30 02:31:31;;;;;;;;;35.50;31.00;;;;;21.54;46.96;101074.59;5060424;28;45411;-67
2023/06/30 02:33:57;;;;;;;;;37.75;32.50;;;;;21.51;46.75;101080.13;5060412;28;46207;-68
2023/06/30 02:36:22;;;;;;;;;37.00;33.00;;;;;21.52;46.71;101079.16;5060351;28;45326;-68
2023/06/30 02:38:47;;;;;;;;;36.00;32.00;;;;;21.52;46.39;101079.16;5060350;28;45400;-68
2023/06/30 02:41:13;;;;;;;;;41.25;33.75;;;;;21.49;46.65;101075.78;5060146;28;45618;-68
2023/06/30 02:43:38;;;;;;;;;36.75;31.75;;;;;21.49;46.88;101078.47;5060509;28;46079;-68
2023/06/30 02:46:03;;;;;;;;;33.50;30.25;;;;;21.50;47.04;101081.06;5064094;28;45173;-68
2023/06/30 02:48:29;;;;;;;;;34.00;27.75;;;;;21.49;46.57;101087.34;5067556;28;45197;-67
2023/06/30 02:50:54;;;;;;;;;22.50;17.75;;;;;21.49;46.92;101086.50;5065477;28;45256;-67
2023/06/30 02:53:19;;;;;;;;;15.25;15.25;;;;;21.47;46.98;101086.59;5080306;28;45345;-68
2023/06/30 02:55:45;;;;;;;;;19.50;18.00;;;;;21.46;46.52;101089.31;5080142;28;45255;-68
2023/06/30 02:58:10;;;;;;;;;16.50;15.00;;;;;21.45;46.77;101087.63;5073762;28;45280;-67
2023/06/30 03:00:36;;;;;;;;;17.00;15.75;;;;;21.42;46.25;101084.16;5059981;28;45441;-68
2023/06/30 03:03:04;;;;;;;;;17.25;15.00;;;;;21.39;47.01;101078.97;5060136;28;46960;-68
2023/06/30 03:05:29;;;;;;;;;20.75;16.75;;;;;21.38;46.09;101077.25;5059746;28;45484;-68
2023/06/30 03:07:55;;;;;;;;;15.50;15.50;;;;;21.38;46.63;101076.38;5058649;28;45237;-67
2023/06/30 03:10:20;;;;;;;;;21.25;14.25;;;;;21.38;46.53;101079.94;5059687;28;45505;-68
2023/06/30 03:12:45;;;;;;;;;16.75;13.75;;;;;21.32;47.01;101058.88;5059579;28;58393;-67
2023/06/30 03:15:11;;;;;;;;;13.25;12.25;;;;;21.34;46.22;101064.13;5059698;28;46264;-67
2023/06/30 03:17:36;;;;;;;;;10.50;9.50;;;;;21.33;46.70;101065.91;5060267;28;45363;-67
2023/06/30 03:20:09;;;;;;;;;12.00;11.00;;;;;21.34;46.50;101061.47;5059561;28;45318;-68
2023/06/30 03:22:34;;;;;;;;;11.00;10.00;;;;;21.26;46.81;101053.88;5059637;28;45875;-68
2023/06/30 03:25:00;;;;;;;;;11.50;11.50;;;;;21.30;46.90;101063.44;5059158;28;45303;-68
2023/06/30 03:27:25;;;;;;;;;12.50;11.75;;;;;21.32;46.79;101069.56;5059942;28;45365;-68
2023/06/30 03:29:51;;;;;;;;;13.00;11.50;;;;;21.28;46.71;101059.97;5073916;28;46394;-67
2023/06/30 03:32:16;;;;;;;;;12.00;10.75;;;;;21.26;46.44;101056.53;5059588;28;53778;-67
2023/06/30 03:34:41;;;;;;;;;14.25;10.75;;;;;21.25;46.31;101052.13;5059200;28;48281;-67
2023/06/30 03:37:06;;;;;;;;;12.75;11.75;;;;;21.24;46.83;101059.28;5059576;28;46599;-67
2023/06/30 03:39:32;;;;;;;;;15.25;12.50;;;;;21.23;46.48;101054.91;5059315;28;45431;-67
2023/06/30 03:41:57;;;;;;;;;16.50;13.75;;;;;21.23;46.64;101056.69;5059578;28;46269;-67
2023/06/30 03:44:22;;;;;;;;;16.00;14.00;;;;;21.22;46.32;101055.84;5059385;28;45383;-67
2023/06/30 03:46:48;;;;;;;;;15.75;13.25;;;;;21.18;46.64;101053.41;5069941;28;45314;-68
2023/06/30 03:49:13;;;;;;;;;11.25;11.00;;;;;21.18;46.15;101064.97;5061489;27;45547;-68
2023/06/30 03:51:38;;;;;;;;;17.50;15.00;;;;;21.17;46.68;101065.91;5069923;28;46118;-67
2023/06/30 03:54:04;;;;;;;;;16.00;14.75;;;;;21.15;46.83;101066.94;5079395;28;45299;-67
2023/06/30 03:56:29;;;;;;;;;19.00;15.25;;;;;21.11;46.59;101053.72;5079588;28;45223;-67
2023/06/30 03:58:54;;;;;;;;;17.25;11.50;;;;;21.12;46.22;101067.97;5066246;28;45404;-67
2023/06/30 04:01:20;;;;;;;;;14.75;13.50;;;;;21.12;46.54;101065.28;5059444;28;45292;-67
2023/06/30 04:03:46;;;;;;;;;22.00;17.50;;;;;21.07;46.36;101057.50;5059021;28;45254;-67
2023/06/30 04:06:11;;;;;;;;;17.50;16.00;;;;;21.09;46.72;101060.09;5058429;28;45415;-68
2023/06/30 04:08:37;;;;;;;;;19.50;18.25;;;;;21.07;46.74;101064.69;5058606;28;45431;-67
2023/06/30 04:11:02;;;;;;;;;17.75;17.00;;;;;21.02;46.22;101059.56;5058967;28;45598;-68
2023/06/30 04:13:27;;;;;;;;;26.25;18.75;;;;;21.05;46.04;101064.75;5059142;28;45350;-67
2023/06/30 04:15:53;;;;;;;;;21.50;17.50;;;;;21.05;46.40;101066.56;5059619;28;45319;-67
2023/06/30 04:18:18;;;;;;;;;24.25;22.25;;;;;21.03;45.87;101072.00;5058864;28;45381;-68
2023/06/30 04:20:44;;;;;;;;;24.50;21.25;;;;;21.01;46.48;101071.19;5058987;28;45981;-68
2023/06/30 04:23:09;;;;;;;;;27.50;23.00;;;;;20.96;46.23;101065.25;5061057;28;45276;-67
2023/06/30 04:25:35;;;;;;;;;25.75;22.75;;;;;21.00;46.09;101069.47;5062417;28;46560;-67
2023/06/30 04:28:01;;;;;;;;;27.00;24.25;;;;;20.99;46.45;101069.56;5062312;28;45576;-67
2023/06/30 04:30:26;;;;;;;;;60.75;46.00;;;;;20.95;46.27;101071.53;5062413;28;46020;-67
2023/06/30 04:32:51;;;;;;;;;28.75;23.25;;;;;20.99;46.43;101070.41;5062342;28;45231;-66
2023/06/30 04:35:17;;;;;;;;;26.25;23.25;;;;;20.99;45.80;101072.22;5062484;28;45437;-67
2023/06/30 04:37:42;;;;;;;;;16.25;15.00;;;;;20.96;45.94;101070.59;5062404;28;45193;-67
2023/06/30 04:40:08;;;;;;;;;62.25;47.25;;;;;20.94;46.01;101064.44;5061855;28;45971;-67
2023/06/30 04:42:34;;;;;;;;;37.75;31.50;;;;;20.97;45.96;101074.09;5061026;28;45253;-67
2023/06/30 04:45:00;;;;;;;;;28.75;26.50;;;;;20.94;46.17;101065.31;5062243;28;45314;-67
2023/06/30 04:47:27;;;;;;;;;32.50;30.75;;;;;20.92;46.44;101061.88;5074393;28;45757;-67
2023/06/30 04:49:53;;;;;;;;;32.00;30.25;;;;;20.92;46.09;101061.00;5062079;28;46618;-67
2023/06/30 04:52:18;;;;;;;;;33.00;29.00;;;;;20.88;46.39;101057.63;5077911;28;45265;-66
2023/06/30 04:54:43;;;;;;;;;18.00;16.25;;;;;20.87;46.23;101053.22;5071868;28;45330;-66
2023/06/30 04:57:09;;;;;;;;;23.50;22.00;;;;;20.89;46.28;101055.81;5061775;28;45426;-66
2023/06/30 04:59:35;;;;;;;;;27.50;24.75;;;;;20.84;45.97;101049.84;5061312;28;45962;-66
2023/06/30 05:02:00;;;;;;;;;31.00;26.25;;;;;20.84;46.41;101050.72;5060373;28;45335;-67
2023/06/30 05:04:25;;;;;;;;;31.25;25.50;;;;;20.78;45.82;101041.22;5062214;28;45331;-66
2023/06/30 05:06:51;;;;;;;;;24.75;22.50;;;;;20.80;45.99;101054.50;5061493;28;45524;-67
2023/06/30 05:09:16;;;;;;;;;25.50;21.50;;;;;20.78;46.37;101065.25;5061715;28;46028;-66
2023/06/30 05:11:41;;;;;;;;;26.75;22.25;;;;;20.78;46.06;101073.25;5073289;28;45447;-66
2023/06/30 05:14:07;;;;;;;;;27.50;26.25;;;;;20.77;45.71;101070.69;5062071;28;45506;-66
2023/06/30 05:16:32;;;;;;;;;27.75;27.00;;;;;20.74;46.12;101062.81;5061773;28;45483;-67
2023/06/30 05:18:57;;;;;;;;;34.75;31.25;;;;;20.74;46.15;101061.03;5066351;28;48050;-66
2023/06/30 05:21:22;;;;;;;;;41.00;31.25;;;;;20.73;45.59;101064.63;5062116;28;45371;-67
2023/06/30 05:23:48;;;;;;;;;28.25;26.25;;;;;20.73;46.12;101075.31;5061750;28;45281;-68
2023/06/30 05:26:13;;;;;;;;;30.00;28.00;;;;;20.72;45.68;101065.56;5061062;28;45298;-68
2023/06/30 05:28:39;;;;;;;;;30.50;23.25;;;;;20.65;45.60;101063.28;5061455;28;46124;-69
2023/06/30 05:31:04;;;;;;;;;29.00;26.00;;;;;20.68;45.55;101065.78;5061259;28;45216;-70
2023/06/30 05:33:30;;;;;;;;;27.50;25.50;;;;;20.68;45.78;101069.31;5060346;28;45350;-70
2023/06/30 05:35:55;;;;;;;;;30.25;23.50;;;;;20.67;45.51;101067.59;5061297;28;45242;-69
2023/06/30 05:38:20;;;;;;;;;24.25;20.75;;;;;20.69;45.85;101079.06;5060935;28;52760;-70
2023/06/30 05:40:46;;;;;;;;;24.50;22.75;;;;;20.68;45.49;101080.00;5061024;28;45315;-69
2023/06/30 05:43:11;;;;;;;;;22.00;19.75;;;;;20.68;45.77;101074.66;5061198;28;45164;-70
2023/06/30 05:45:37;;;;;;;;;25.25;20.75;;;;;20.68;45.52;101077.34;5061395;28;45419;-68
2023/06/30 05:48:02;;;;;;;;;24.75;22.75;;;;;20.66;45.87;101073.00;5073697;28;46012;-68
2023/06/30 05:50:28;;;;;;;;;21.75;18.25;;;;;20.67;45.50;101078.25;5062917;28;45244;-69
2023/06/30 05:52:54;;;;;;;;;26.50;21.50;;;;;20.67;45.89;101086.28;5080037;28;45284;-70
2023/06/30 05:55:19;;;;;;;;;21.75;20.75;;;;;20.69;45.33;101083.53;5080919;28;45252;-70
2023/06/30 05:57:45;;;;;;;;;21.25;19.50;;;;;20.70;45.34;101086.09;5077196;28;45888;-69
2023/06/30 06:00:11;;;;;;;;;24.25;20.75;;;;;20.71;45.55;101082.53;5060802;28;46303;-69
2023/06/30 06:02:36;;;;;;;;;20.50;19.25;;;;;20.73;45.66;101079.81;5060976;28;45418;-70
2023/06/30 06:05:02;;;;;;;;;22.00;19.00;;;;;20.75;45.14;101089.47;5060631;28;45252;-70
2023/06/30 06:07:27;;;;;;;;;12.25;11.75;;;;;20.74;44.99;101078.84;5061000;28;46233;-70
2023/06/30 06:09:53;;;;;;;;;15.75;13.50;;;;;20.76;45.65;101084.97;5060571;28;45512;-68
2023/06/30 06:12:18;;;;;;;;;12.00;10.25;;;;;20.78;45.06;101083.09;5064588;28;45404;-68
2023/06/30 06:14:44;;;;;;;;;9.00;8.25;;;;;20.75;45.53;101072.56;5070645;28;45367;-66
2023/06/30 06:17:10;;;;;;;;;8.00;7.00;;;;;20.82;45.08;101090.00;5059995;28;45197;-68
2023/06/30 06:19:35;;;;;;;;;7.00;6.75;;;;;20.84;44.92;101087.25;5060153;28;45307;-67
2023/06/30 06:22:00;;;;;;;;;8.50;6.75;;;;;20.79;44.99;101079.47;5060644;28;45469;-66
2023/06/30 06:24:25;;;;;;;;;6.75;6.25;;;;;20.86;45.25;101090.72;5060183;28;45344;-65
2023/06/30 06:26:51;;;;;;;;;7.00;6.00;;;;;20.86;45.34;101096.91;5060110;28;45394;-65
2023/06/30 06:29:21;;;;;;;;;6.25;5.00;;;;;20.89;45.17;101102.09;5060276;28;45182;-65
2023/06/30 06:31:48;;;;;;;;;15.25;13.25;;;;;20.90;45.35;101105.63;5060725;28;45315;-65
2023/06/30 06:34:14;;;;;;;;;6.00;6.00;;;;;20.89;45.02;101107.44;5060181;28;45195;-64
2023/06/30 06:36:39;;;;;;;;;5.00;4.50;;;;;20.92;44.72;101101.06;5063985;28;46522;-65
2023/06/30 06:39:04;;;;;;;;;5.50;5.50;;;;;20.95;44.61;101103.56;5070435;28;45323;-64
2023/06/30 06:41:31;;;;;;;;;4.50;4.50;;;;;20.94;44.96;101108.06;5060454;28;45217;-65
2023/06/30 06:43:56;;;;;;;;;6.50;5.75;;;;;20.99;44.83;101112.28;5058963;28;45390;-66
2023/06/30 06:46:21;;;;;;;;;7.75;7.75;;;;;21.01;45.13;101121.09;5064840;28;47170;-66
2023/06/30 06:48:46;;;;;;;;;9.00;6.00;;;;;21.00;44.69;101112.22;5065958;28;47713;-66
2023/06/30 06:51:12;;;;;;;;;6.00;6.00;;;;;21.04;44.33;101107.56;5068427;28;45450;-66
2023/06/30 06:53:37;;;;;;;;;19.50;17.50;;;;;21.05;44.48;101120.84;5080150;28;45231;-66
2023/06/30 06:56:04;;;;;;;;;6.50;5.50;;;;;21.09;44.41;101121.53;5080292;28;46525;-66
2023/06/30 06:58:32;;;;;;;;;7.75;4.75;;;;;21.11;44.77;101112.50;5070569;28;45383;-66
2023/06/30 07:00:57;;;;;;;;;7.00;4.50;;;;;21.14;44.82;101107.97;5058929;28;45412;-67
2023/06/30 07:03:23;;;;;;;;;5.00;5.00;;;;;21.16;44.80;101108.75;5058630;28;45313;-65
2023/06/30 07:05:49;;;;;;;;;5.00;4.00;;;;;21.20;44.33;101119.16;5059908;28;45739;-65
2023/06/30 07:08:16;;;;;;;;;5.25;5.25;;;;;21.21;44.51;101112.03;5058222;28;45253;-65
2023/06/30 07:10:44;;;;;;;;;5.50;5.25;;;;;21.20;43.98;101104.97;5060107;28;45289;-64
2023/06/30 07:13:09;;;;;;;;;8.50;6.25;;;;;21.29;44.58;101117.81;5059525;28;45296;-65
2023/06/30 07:15:35;;;;;;;;;6.25;4.00;;;;;21.31;44.31;101115.94;5059438;28;46356;-64
2023/06/30 07:18:01;;;;;;;;;7.25;7.00;;;;;21.35;44.31;101109.47;5059929;28;45567;-64
2023/06/30 07:20:27;;;;;;;;;4.50;3.25;;;;;21.39;44.44;101115.53;5059833;28;45409;-64
2023/06/30 07:22:54;;;;;;;;;9.25;5.00;;;;;21.42;43.75;101118.91;5059417;28;45332;-64
2023/06/30 07:25:19;;;;;;;;;5.00;5.00;;;;;21.46;43.83;101121.41;5059610;28;45429;-64
2023/06/30 07:27:53;;;;;;;;;3.50;3.50;;;;;21.48;43.58;101123.03;5061961;28;45545;-64
2023/06/30 07:30:25;;;;;;;;;6.75;5.25;;;;;21.51;43.67;101124.69;5070399;28;45327;-63
2023/06/30 07:32:51;;;;;;;;;6.75;5.25;;;;;21.53;43.79;101131.66;5061941;27;45480;-64
2023/06/30 07:35:17;;;;;;;;;5.00;5.00;;;;;21.55;43.86;101121.78;5059411;28;45387;-63
2023/06/30 07:37:44;;;;;;;;;5.00;5.00;;;;;21.56;43.69;101128.88;5059445;28;45324;-64
2023/06/30 07:40:10;;;;;;;;;5.00;5.00;;;;;21.58;43.73;101121.66;5059574;28;45339;-64
2023/06/30 07:42:38;;;;;;;;;5.00;4.00;;;;;21.61;43.43;101131.31;5063872;28;45173;-64
2023/06/30 07:45:08;;;;;;;;;3.75;3.50;;;;;21.61;42.86;101123.28;5068190;27;46206;-64
2023/06/30 07:47:33;;;;;;;;;4.00;4.00;;;;;21.68;43.17;101129.16;5070302;28;45302;-64
2023/06/30 07:49:58;;;;;;;;;4.75;4.75;;;;;21.70;43.01;101130.78;5058234;28;45395;-64
2023/06/30 07:52:24;;;;;;;;;4.75;4.00;;;;;21.73;42.75;101133.28;5077276;28;45375;-64
2023/06/30 07:54:53;;;;;;;;;4.75;3.50;;;;;21.76;42.77;101124.25;5078911;28;51263;-64
2023/06/30 07:57:18;;;;;;;;;3.25;3.00;;;;;21.80;43.10;101133.84;5080767;28;45455;-63
2023/06/30 07:59:43;;;;;;;;;4.00;4.00;;;;;21.82;42.53;101139.09;5064293;28;45222;-65
2023/06/30 08:02:09;;;;;;;;;4.00;4.00;;;;;21.84;42.36;101137.22;5065016;28;45419;-66
2023/06/30 08:04:35;;;;;;;;;3.50;3.50;;;;;21.85;42.63;101133.59;5062866;28;46020;-65
2023/06/30 08:07:00;;;;;;;;;4.75;4.25;;;;;21.88;42.51;101136.06;5062623;28;45574;-65
2023/06/30 08:09:26;;;;;;;;;5.00;4.50;;;;;21.91;42.09;101138.56;5062386;28;47518;-65
2023/06/30 08:11:51;;;;;;;;;7.00;5.00;;;;;21.94;42.59;101135.75;5076185;28;45306;-65
2023/06/30 08:14:16;;;;;;;;;3.50;3.50;;;;;21.98;42.28;101139.09;5062707;28;45413;-65
2023/06/30 08:16:42;;;;;;;;;4.25;3.00;;;;;22.00;42.24;101131.84;5062315;28;53472;-65
2023/06/30 08:19:07;;;;;;;;;2.75;2.50;;;;;22.02;42.26;101135.31;5061298;28;45290;-65
2023/06/30 08:21:32;;;;;;;;;5.50;5.25;;;;;22.04;42.18;101128.91;5062342;28;45576;-64
2023/06/30 08:23:58;;;;;;;;;6.00;4.00;;;;;22.07;42.19;101134.09;5062233;28;46274;-64
2023/06/30 08:26:23;;;;;;;;;5.75;3.75;;;;;22.11;41.89;101133.94;5062003;28;49759;-64
2023/06/30 08:28:48;;;;;;;;;5.00;3.00;;;;;22.14;41.62;101123.03;5062800;28;45311;-64
2023/06/30 08:31:14;;;;;;;;;3.25;3.25;;;;;22.17;41.75;101123.72;5071438;28;45575;-64
2023/06/30 08:33:39;;;;;;;;;3.00;3.00;;;;;22.24;41.69;101126.94;5062458;28;45248;-64
2023/06/30 08:36:05;;;;;;;;;3.00;3.00;;;;;22.27;41.74;101129.41;5062278;28;45351;-65
2023/06/30 08:38:30;;;;;;;;;1.00;1.00;;;;;22.33;41.70;101130.91;5062411;28;45355;-63
2023/06/30 08:40:56;;;;;;;;;2.25;2.25;;;;;22.34;41.21;101127.25;5074615;28;45579;-65
2023/06/30 08:43:24;;;;;;;;;3.00;3.00;;;;;22.36;41.26;101131.59;5062266;28;45233;-65
2023/06/30 08:45:53;;;;;;;;;4.25;3.00;;;;;22.42;41.30;101130.38;5062844;28;45387;-65
2023/06/30 08:48:20;;;;;;;;;3.50;3.50;;;;;22.44;40.95;101130.28;5071046;27;45299;-65
2023/06/30 08:50:45;;;;;;;;;5.00;4.00;;;;;22.42;41.17;101130.38;5065984;28;45299;-65
2023/06/30 08:53:11;;;;;;;;;6.00;4.00;;;;;22.46;40.90;101126.56;5081999;27;45377;-64
2023/06/30 08:55:37;;;;;;;;;1.00;1.00;;;;;22.49;40.96;101125.53;5075865;27;45448;-64
2023/06/30 08:58:02;;;;;;;;;3.25;3.25;;;;;22.51;41.20;101126.31;5071141;28;45415;-64
2023/06/30 09:00:28;;;;;;;;;3.75;2.00;;;;;22.53;40.65;101117.22;5050887;28;46605;-64
2023/06/30 09:02:55;;;;;;;;;2.25;2.25;;;;;22.56;40.70;101110.84;5087554;27;46876;-65
2023/06/30 09:05:22;;;;;;;;;4.25;3.00;;;;;22.61;40.75;101110.56;5061593;28;45264;-65
2023/06/30 09:07:55;;;;;;;;;4.50;4.25;;;;;22.64;40.69;101111.25;5061388;28;45395;-65
2023/06/30 09:10:26;;;;;;;;;2.50;2.25;;;;;22.67;40.44;101108.38;5064829;28;45270;-65
2023/06/30 09:12:57;;;;;;;;;4.00;3.00;;;;;22.71;40.38;101107.22;5060744;28;47265;-65
2023/06/30 09:15:23;;;;;;;;;3.00;2.00;;;;;22.78;40.37;101098.84;5071114;28;45362;-65
2023/06/30 09:17:49;;;;;;;;;2.50;1.75;;;;;22.82;40.49;101098.56;5073562;28;45415;-65
2023/06/30 09:20:14;;;;;;;;;3.50;3.50;;;;;22.86;40.25;101099.25;5070719;28;45906;-66
2023/06/30 09:22:40;;;;;;;;;4.25;3.00;;;;;22.87;39.88;101096.47;5061367;28;46015;-66
2023/06/30 09:25:07;;;;;;;;;3.25;3.25;;;;;22.88;40.22;101092.84;5065973;28;45524;-66
2023/06/30 09:27:33;;;;;;;;;4.00;3.75;;;;;22.92;39.64;101095.31;5071904;28;45492;-66
2023/06/30 09:29:59;;;;;;;;;3.00;3.00;;;;;22.98;39.66;101103.88;5070860;27;45350;-66
2023/06/30 09:32:33;;;;;;;;;5.00;4.00;;;;;23.01;39.64;101092.09;5070472;28;47434;-65
2023/06/30 09:35:08;;;;;;;;;3.00;3.00;;;;;23.06;39.58;101092.69;5087076;27;45525;-65
2023/06/30 09:37:53;;;;;;;;;3.00;3.00;;;;;23.11;40.07;101092.41;5072300;28;45300;-66
2023/06/30 09:40:24;;;;;;;;;4.25;4.25;;;;;23.16;39.41;101091.19;5065730;28;45422;-66
2023/06/30 09:42:53;;;;;;;;;3.00;3.00;;;;;23.19;39.04;101088.31;5071089;28;47060;-65
2023/06/30 09:45:19;;;;;;;;;4.00;3.50;;;;;23.21;39.39;101085.53;5069840;28;45444;-65
2023/06/30 09:47:51;;;;;;;;;3.25;3.25;;;;;23.25;39.03;101087.06;5069862;28;45482;-65
2023/06/30 09:50:23;;;;;;;;;4.00;4.00;;;;;23.28;38.94;101094.06;5071206;28;45247;-66
2023/06/30 09:52:49;;;;;;;;;4.25;3.75;;;;;23.31;38.73;101086.69;5069405;28;46347;-66
2023/06/30 09:55:14;;;;;;;;;4.50;4.50;;;;;23.34;38.95;101083.78;5070143;28;45502;-65
2023/06/30 09:57:43;;;;;;;;;4.75;3.25;;;;;23.37;38.79;101080.09;5070782;28;45433;-65
2023/06/30 10:00:11;;;;;;;;;3.25;3.00;;;;;23.41;38.57;101078.94;5070797;27;45421;-65
2023/06/30 10:02:37;;;;;;;;;4.00;4.00;;;;;23.44;38.53;101083.25;5069619;28;45434;-64
2023/06/30 10:05:03;;;;;;;;;3.00;3.00;;;;;23.46;37.90;101075.94;5068122;27;45255;-64
2023/06/30 10:07:28;;;;;;;;;4.25;4.00;;;;;23.49;38.17;101081.97;5069110;28;45447;-65
2023/06/30 10:09:54;;;;;;;;;6.00;6.00;;;;;23.52;38.30;101076.44;5067825;28;45934;-65
2023/06/30 10:12:21;;;;;;;;;22.25;20.00;;;;;23.58;38.25;101077.00;5071090;28;46366;-65
2023/06/30 10:14:49;;;;;;;;;23.00;22.50;;;;;23.63;38.39;101072.19;5068807;28;45448;-65
2023/06/30 10:17:15;;;;;;;;;34.00;32.00;;;;;23.68;38.13;101067.41;5060890;28;45338;-65
2023/06/30 10:19:41;;;;;;;;;34.25;29.75;;;;;23.72;38.12;101065.38;5058543;28;45431;-65
2023/06/30 10:22:06;;;;;;;;;11.75;11.00;;;;;23.81;38.02;101076.38;5060761;28;46361;-65
2023/06/30 10:24:37;;;;;;;;;16.50;16.25;;;;;23.87;37.70;101064.38;5060209;28;45396;-65
2023/06/30 10:27:07;;;;;;;;;11.00;11.00;;;;;23.92;37.45;101075.69;5059314;28;45376;-65
2023/06/30 10:29:34;;;;;;;;;13.00;13.00;;;;;23.97;37.10;101084.31;5060328;28;45581;-65
2023/06/30 10:31:59;;;;;;;;;16.25;15.00;;;;;24.00;37.66;101072.53;5060344;28;45328;-65
2023/06/30 10:34:25;;;;;;;;;10.25;8.75;;;;;24.06;37.61;101068.56;5060182;28;45165;-65
2023/06/30 10:36:51;;;;;;;;;8.00;6.00;;;;;24.07;37.87;101067.63;5060745;28;45305;-65
2023/06/30 10:39:17;;;;;;;;;5.75;4.25;;;;;24.11;37.54;101071.81;5058643;28;46465;-66
2023/06/30 10:41:47;;;;;;;;;7.75;7.00;;;;;24.12;37.61;101066.34;5060355;28;45213;-64
2023/06/30 10:44:13;;;;;;;;;3.00;3.00;;;;;24.18;37.63;101062.41;5060237;28;45394;-65
2023/06/30 10:46:47;;;;;;;;;4.00;4.00;;;;;24.21;37.41;101070.22;5069196;28;45298;-64
2023/06/30 10:49:33;;;;;;;;;7.00;6.00;;;;;24.26;37.45;101068.09;5075723;28;45455;-64
2023/06/30 10:52:00;;;;;;;;;6.50;5.00;;;;;24.31;37.21;101059.75;5072508;28;46077;-65
2023/06/30 10:54:31;;;;;;;;;4.50;4.50;;;;;24.36;37.07;101062.97;5058589;28;45284;-64
2023/06/30 10:57:11;;;;;;;;;5.00;5.00;;;;;24.42;37.78;101069.78;5059932;28;45403;-65
2023/06/30 10:59:41;;;;;;;;;4.00;4.00;;;;;24.52;37.67;101078.91;5058858;28;45491;-69
2023/06/30 11:02:14;;;;;;;;;5.25;4.00;;;;;24.62;37.73;101069.25;5076405;28;45461;-66
2023/06/30 11:04:41;;;;;;;;;5.00;4.25;;;;;24.72;37.61;101071.38;5068088;28;45395;-65
2023/06/30 11:07:10;;;;;;;;;3.75;3.75;;;;;24.80;37.07;101058.25;5060048;28;45364;-67
2023/06/30 11:09:47;;;;;;;;;6.25;5.00;;;;;24.95;37.06;101056.31;5065553;28;45492;-66
2023/06/30 11:12:20;;;;;;;;;6.00;3.00;;;;;25.10;37.11;101057.06;5062260;28;47086;-66
2023/06/30 11:15:03;;;;;;;;;6.00;6.00;;;;;25.24;37.50;101065.00;5059684;28;45334;-66